Terminal Aerodrome Forecast
Issued by NWS Pittsburgh, PA

Current Version | Previous Version | Graphics & Text | Print | Product List | Glossary On
Versions: 1 2 3 4 5 6 7 8 9 10 11 12 13 14 15 16 17 18 19 20 21 22 23 24 25
735
FTUS41 KPBZ 221454 AAA
TAFPIT
TAF AMD
KPIT 221454Z 2215/2318 32011KT P6SM -SHSN BKN025
     FM221700 30007KT P6SM BKN030
     FM230000 32005KT P6SM SCT090=

USA.gov is the U.S. government's official web portal to all federal, state and local government web resources and services.